createdAt,value
2023-02-03T00:02:11.653Z,5.57
2023-02-03T00:04:38.946Z,5.60
2023-02-03T00:07:05.947Z,4.95
2023-02-03T00:09:33.135Z,6.78
2023-02-03T00:11:59.989Z,4.25
2023-02-03T00:14:27.200Z,6.18
2023-02-03T00:16:54.032Z,5.38
2023-02-03T00:19:21.244Z,6.72
2023-02-03T00:21:48.076Z,6.03
2023-02-03T00:24:15.466Z,3.83
2023-02-03T00:26:43.489Z,3.40
2023-02-03T00:29:10.959Z,7.75
2023-02-03T00:31:38.248Z,3.65
2023-02-03T00:34:06.417Z,2.58
2023-02-03T00:36:33.708Z,7.10
2023-02-03T00:39:01.611Z,5.25
2023-02-03T00:41:30.891Z,5.75
2023-02-03T00:43:58.141Z,3.67
2023-02-03T00:46:25.392Z,3.63
2023-02-03T00:48:52.640Z,5.00
2023-02-03T00:51:19.954Z,6.13
2023-02-03T00:53:47.809Z,4.85
2023-02-03T00:56:15.228Z,7.30
2023-02-03T00:58:42.328Z,4.80
2023-02-03T01:01:09.727Z,3.38
2023-02-03T01:03:37.056Z,5.10
2023-02-03T01:06:15.787Z,5.35
2023-02-03T01:08:43.308Z,10.02
2023-02-03T01:11:12.964Z,5.93
2023-02-03T01:13:40.444Z,6.50
2023-02-03T01:16:10.220Z,5.75
2023-02-03T01:18:37.612Z,2.38
2023-02-03T01:21:13.482Z,4.25
2023-02-03T01:23:40.699Z,4.45
2023-02-03T01:26:09.841Z,2.97
2023-02-03T01:28:37.473Z,3.40
2023-02-03T01:31:20.075Z,6.47
2023-02-03T01:33:48.577Z,5.95
2023-02-03T01:36:17.301Z,5.00
2023-02-03T01:38:45.133Z,6.13
2023-02-03T01:41:17.939Z,4.35
2023-02-03T01:43:47.867Z,5.38
2023-02-03T01:46:38.776Z,3.50
2023-02-03T01:49:10.646Z,3.40
2023-02-03T01:51:40.532Z,4.30
2023-02-03T01:54:11.713Z,4.80
2023-02-03T01:56:43.495Z,5.10
2023-02-03T01:59:10.711Z,2.92
2023-02-03T02:01:38.111Z,2.38
2023-02-03T02:04:05.660Z,3.13
2023-02-03T02:06:32.897Z,2.72
2023-02-03T02:09:01.867Z,3.35
2023-02-03T02:11:29.529Z,3.35
2023-02-03T02:14:00.502Z,2.75
2023-02-03T02:17:04.015Z,4.05
2023-02-03T02:19:42.551Z,4.28
2023-02-03T02:22:09.788Z,3.40
2023-02-03T02:25:11.502Z,3.55
2023-02-03T02:28:25.985Z,3.03
2023-02-03T02:31:30.789Z,1.60
2023-02-03T02:34:20.582Z,4.88
2023-02-03T02:36:48.508Z,4.30
2023-02-03T02:39:46.317Z,2.75
2023-02-03T02:42:30.044Z,2.17
2023-02-03T02:45:05.571Z,2.53
2023-02-03T02:47:32.868Z,3.78
2023-02-03T02:50:00.138Z,1.70
2023-02-03T02:52:31.671Z,9.60
2023-02-03T02:55:03.163Z,2.15
2023-02-03T02:57:34.112Z,2.97
2023-02-03T03:00:01.497Z,1.98
2023-02-03T03:02:35.019Z,2.28
2023-02-03T03:05:07.760Z,1.92
2023-02-03T03:07:48.552Z,4.03
2023-02-03T03:10:22.032Z,2.17
2023-02-03T03:12:54.548Z,4.38
2023-02-03T03:15:26.865Z,2.45
2023-02-03T03:18:08.772Z,1.88
2023-02-03T03:20:40.427Z,3.72
2023-02-03T03:23:09.314Z,3.22
2023-02-03T03:25:47.076Z,6.43
2023-02-03T03:28:20.760Z,3.10
2023-02-03T03:30:48.083Z,1.42
2023-02-03T03:33:14.881Z,3.05
2023-02-03T03:36:28.755Z,4.80
2023-02-03T03:39:03.593Z,4.43
2023-02-03T03:41:39.275Z,1.50
2023-02-03T03:44:09.515Z,1.58
2023-02-03T03:46:49.523Z,2.35
2023-02-03T03:49:18.906Z,1.67
2023-02-03T03:51:57.741Z,1.85
2023-02-03T03:54:26.172Z,2.25
2023-02-03T03:57:03.252Z,2.42
2023-02-03T03:59:34.259Z,2.13
2023-02-03T04:02:04.736Z,1.48
2023-02-03T04:04:36.363Z,1.50
2023-02-03T04:07:03.629Z,2.67
2023-02-03T04:09:31.258Z,1.50
2023-02-03T04:12:05.888Z,1.67
2023-02-03T04:14:38.627Z,1.40
2023-02-03T04:17:06.320Z,1.70
2023-02-03T04:19:33.563Z,2.60
2023-02-03T04:22:00.795Z,3.00
2023-02-03T04:24:27.677Z,1.75
2023-02-03T04:26:54.907Z,1.40
2023-02-03T04:29:22.433Z,2.33
2023-02-03T04:31:49.715Z,1.42
2023-02-03T04:34:16.548Z,2.53
2023-02-03T04:36:43.753Z,1.60
2023-02-03T04:39:11.136Z,1.83
2023-02-03T04:41:38.448Z,1.60
2023-02-03T04:44:05.750Z,3.10
2023-02-03T04:46:32.938Z,1.98
2023-02-03T04:49:00.164Z,1.50
2023-02-03T04:51:27.356Z,1.48
2023-02-03T04:53:54.564Z,1.25
2023-02-03T04:56:21.350Z,1.30
2023-02-03T04:58:48.384Z,2.03
2023-02-03T05:01:15.177Z,4.05
2023-02-03T05:03:42.423Z,1.80
2023-02-03T05:06:09.270Z,1.50
2023-02-03T05:08:36.488Z,2.60
2023-02-03T05:11:05.202Z,1.48
2023-02-03T05:13:32.612Z,1.40
2023-02-03T05:15:59.841Z,1.52
2023-02-03T05:18:27.045Z,3.28
2023-02-03T05:20:53.806Z,1.88
2023-02-03T05:23:21.057Z,1.40
2023-02-03T05:25:48.291Z,1.55
2023-02-03T05:28:15.520Z,3.38
2023-02-03T05:30:42.801Z,2.70
2023-02-03T05:33:10.106Z,2.05
2023-02-03T05:35:37.698Z,1.88
2023-02-03T05:38:04.553Z,1.85
2023-02-03T05:40:57.945Z,1.95
2023-02-03T05:43:24.758Z,5.05
2023-02-03T05:45:52.049Z,2.72
2023-02-03T05:48:18.870Z,2.22
2023-02-03T05:50:46.067Z,5.82
2023-02-03T05:53:13.267Z,4.13
2023-02-03T05:55:41.370Z,2.80
2023-02-03T05:58:08.573Z,2.72
2023-02-03T06:00:35.832Z,2.50
2023-02-03T06:03:03.837Z,3.00
2023-02-03T06:05:32.887Z,9.55
2023-02-03T06:08:00.317Z,3.55
2023-02-03T06:10:27.735Z,5.75
2023-02-03T06:12:54.729Z,5.28
2023-02-03T06:15:21.526Z,2.38
2023-02-03T06:17:49.021Z,2.30
2023-02-03T06:20:19.233Z,4.05
2023-02-03T06:22:46.060Z,2.45
2023-02-03T06:25:14.371Z,2.13
2023-02-03T06:27:42.273Z,5.63
2023-02-03T06:30:11.310Z,3.95
2023-02-03T06:32:38.389Z,3.90
2023-02-03T06:35:05.691Z,3.80
2023-02-03T06:37:32.931Z,5.03
2023-02-03T06:40:00.162Z,2.80
2023-02-03T06:42:27.396Z,4.50
2023-02-03T06:44:55.105Z,5.97
2023-02-03T06:47:22.660Z,4.97
2023-02-03T06:49:49.903Z,3.42
2023-02-03T06:52:17.143Z,1.88
2023-02-03T06:54:44.343Z,8.20
2023-02-03T06:57:11.589Z,4.80
2023-02-03T06:59:38.907Z,2.50
2023-02-03T07:02:06.180Z,3.40
2023-02-03T07:04:33.363Z,2.90
2023-02-03T07:07:00.837Z,4.30
2023-02-03T07:09:28.047Z,3.15
2023-02-03T07:11:55.636Z,2.30
2023-02-03T07:14:23.156Z,2.17
2023-02-03T07:16:50.515Z,3.25
2023-02-03T07:19:17.693Z,2.50
2023-02-03T07:21:44.917Z,5.90
2023-02-03T07:24:12.160Z,1.90
2023-02-03T07:26:39.368Z,5.00
2023-02-03T07:29:06.376Z,2.53
2023-02-03T07:31:33.824Z,2.60
2023-02-03T07:34:01.300Z,2.47
2023-02-03T07:36:29.164Z,3.20
2023-02-03T07:38:56.532Z,2.75
2023-02-03T07:41:23.822Z,4.40
2023-02-03T07:43:51.037Z,2.50
2023-02-03T07:46:18.337Z,2.85
2023-02-03T07:48:45.631Z,3.42
2023-02-03T07:51:12.926Z,2.25
2023-02-03T07:53:39.749Z,1.77
2023-02-03T07:56:07.175Z,1.95
2023-02-03T07:58:34.380Z,2.22
2023-02-03T08:01:01.633Z,5.88
2023-02-03T08:03:28.858Z,1.92
2023-02-03T08:05:56.138Z,2.78
2023-02-03T08:08:23.393Z,2.10
2023-02-03T08:10:50.627Z,2.65
2023-02-03T08:13:17.988Z,6.03
2023-02-03T08:15:44.872Z,5.05
2023-02-03T08:18:12.721Z,2.38
2023-02-03T08:20:39.923Z,3.13
2023-02-03T08:23:07.112Z,2.38
2023-02-03T08:25:34.331Z,1.95
2023-02-03T08:28:01.649Z,2.90
2023-02-03T08:30:29.278Z,2.20
2023-02-03T08:32:56.688Z,2.35
2023-02-03T08:35:23.954Z,6.15
2023-02-03T08:37:51.294Z,2.63
2023-02-03T08:40:18.567Z,2.05
2023-02-03T08:42:45.778Z,3.35
2023-02-03T08:45:12.986Z,2.85
2023-02-03T08:47:40.104Z,2.35
2023-02-03T08:50:09.330Z,2.72
2023-02-03T08:52:36.183Z,2.45
2023-02-03T08:55:03.405Z,2.42
2023-02-03T08:57:37.465Z,3.33
2023-02-03T09:00:06.343Z,2.30
2023-02-03T09:02:33.667Z,1.88
2023-02-03T09:05:01.006Z,1.98
2023-02-03T09:07:28.477Z,2.40
2023-02-03T09:09:55.243Z,1.58
2023-02-03T09:12:22.466Z,4.28
2023-02-03T09:14:49.705Z,2.00
2023-02-03T09:17:17.111Z,3.13
2023-02-03T09:19:44.452Z,3.15
2023-02-03T09:22:11.674Z,1.88
2023-02-03T09:24:39.058Z,1.88
2023-02-03T09:27:06.289Z,3.85
2023-02-03T09:29:33.556Z,2.83
2023-02-03T09:32:02.426Z,3.65
2023-02-03T09:34:29.677Z,4.63
2023-02-03T09:36:57.096Z,1.58
2023-02-03T09:39:24.457Z,3.95
2023-02-03T09:42:13.203Z,1.80
2023-02-03T09:44:58.550Z,2.33
2023-02-03T09:47:28.858Z,3.58
2023-02-03T09:50:04.974Z,1.92
2023-02-03T09:55:26.040Z,2.08
2023-02-03T09:58:03.026Z,1.70
2023-02-03T10:00:35.495Z,1.73
2023-02-03T10:03:26.415Z,3.58
2023-02-03T10:06:17.855Z,1.63
2023-02-03T10:09:09.547Z,4.40
2023-02-03T10:12:11.656Z,2.67
2023-02-03T10:14:49.667Z,1.70
2023-02-03T10:17:26.379Z,4.90
2023-02-03T10:20:00.886Z,2.33
2023-02-03T10:22:31.133Z,2.03
2023-02-03T10:24:58.749Z,1.90
2023-02-03T10:27:26.316Z,1.73
2023-02-03T10:30:05.212Z,1.90
2023-02-03T10:32:33.764Z,1.52
2023-02-03T10:35:02.027Z,3.10
2023-02-03T10:37:30.470Z,2.13
2023-02-03T10:39:59.712Z,2.45
2023-02-03T10:42:46.992Z,1.98
2023-02-03T10:45:14.250Z,3.78
2023-02-03T10:47:51.549Z,1.67
2023-02-03T10:50:31.997Z,2.75
2023-02-03T10:53:21.868Z,2.55
2023-02-03T10:56:02.757Z,2.20
2023-02-03T10:58:31.342Z,1.80
2023-02-03T11:01:07.336Z,2.92
2023-02-03T11:06:05.171Z,1.40
2023-02-03T11:08:32.603Z,1.00
2023-02-03T11:11:13.128Z,1.35
2023-02-03T11:13:40.374Z,1.50
2023-02-03T11:16:16.204Z,1.20
2023-02-03T11:18:56.070Z,1.30
2023-02-03T11:21:31.137Z,2.80
2023-02-03T11:24:04.844Z,1.23
2023-02-03T11:26:45.369Z,1.45
2023-02-03T11:29:40.107Z,3.00
2023-02-03T11:32:17.320Z,2.65
2023-02-03T11:35:15.061Z,1.73
2023-02-03T11:37:47.422Z,4.80
2023-02-03T11:40:20.036Z,3.03
2023-02-03T11:42:49.519Z,2.15
2023-02-03T11:45:27.868Z,2.22
2023-02-03T11:48:11.549Z,1.92
2023-02-03T11:50:44.438Z,2.20
2023-02-03T11:53:11.656Z,1.38
2023-02-03T11:55:38.904Z,1.35
2023-02-03T11:58:06.413Z,3.55
2023-02-03T12:01:00.504Z,2.40
2023-02-03T12:03:53.570Z,1.20
2023-02-03T12:06:35.453Z,1.75
2023-02-03T12:09:22.818Z,2.90
2023-02-03T12:12:08.462Z,1.48
2023-02-03T12:15:01.032Z,1.63
2023-02-03T12:18:00.359Z,1.23
2023-02-03T12:20:40.683Z,1.23
2023-02-03T12:23:50.540Z,1.40
2023-02-03T12:26:17.769Z,1.40
2023-02-03T12:28:47.616Z,1.00
2023-02-03T12:31:24.556Z,1.17
2023-02-03T12:33:57.795Z,1.75
2023-02-03T12:36:30.339Z,0.90
2023-02-03T12:39:03.147Z,2.67
2023-02-03T12:41:36.123Z,1.73
2023-02-03T12:44:13.909Z,2.25
2023-02-03T12:46:45.270Z,1.38
2023-02-03T12:49:31.016Z,2.25
2023-02-03T12:52:10.257Z,1.13
2023-02-03T12:54:54.741Z,1.70
2023-02-03T12:57:44.472Z,1.10
2023-02-03T13:00:28.128Z,0.95
2023-02-03T13:02:55.462Z,1.27
2023-02-03T13:05:43.574Z,3.30
2023-02-03T13:08:36.578Z,1.23
2023-02-03T13:11:03.801Z,3.25
2023-02-03T13:13:36.165Z,1.67
2023-02-03T13:16:08.046Z,8.73
2023-02-03T13:18:42.509Z,1.35
2023-02-03T13:21:12.667Z,0.90
2023-02-03T13:23:48.316Z,2.25
2023-02-03T13:26:49.538Z,1.40
2023-02-03T13:29:16.733Z,0.90
2023-02-03T13:31:46.436Z,0.88
2023-02-03T13:34:48.433Z,0.90
2023-02-03T13:37:48.948Z,1.23
2023-02-03T13:40:41.792Z,3.78
2023-02-03T13:43:35.870Z,0.90
2023-02-03T13:46:06.876Z,2.03
2023-02-03T13:48:35.896Z,1.15
2023-02-03T13:51:19.931Z,1.15
2023-02-03T13:53:48.309Z,1.20
2023-02-03T13:56:21.333Z,1.17
2023-02-03T13:59:12.817Z,0.75
2023-02-03T14:01:43.495Z,1.15
2023-02-03T14:04:25.123Z,1.00
2023-02-03T14:06:55.165Z,1.08
2023-02-03T14:09:30.584Z,0.98
2023-02-03T14:12:15.636Z,1.00
2023-02-03T14:15:03.093Z,1.13
2023-02-03T14:17:35.998Z,1.10
2023-02-03T14:20:05.585Z,1.20
2023-02-03T14:22:33.283Z,2.05
2023-02-03T14:25:06.787Z,1.20
2023-02-03T14:27:34.211Z,0.90
2023-02-03T14:30:09.963Z,0.88
2023-02-03T14:33:06.171Z,1.20
2023-02-03T14:35:40.227Z,1.42
2023-02-03T14:38:11.185Z,1.20
2023-02-03T14:40:59.546Z,1.20
2023-02-03T14:43:26.855Z,2.38
2023-02-03T14:46:04.783Z,1.13
2023-02-03T14:48:37.611Z,0.80
2023-02-03T14:51:29.007Z,0.90
2023-02-03T14:54:15.979Z,1.27
2023-02-03T14:57:21.747Z,3.55
2023-02-03T14:59:54.963Z,1.20
2023-02-03T15:02:25.904Z,1.00
2023-02-03T15:05:13.088Z,1.15
2023-02-03T15:07:45.704Z,1.42
2023-02-03T15:10:16.580Z,1.75
2023-02-03T15:13:02.879Z,1.13
2023-02-03T15:15:32.677Z,1.10
2023-02-03T15:18:19.590Z,1.10
2023-02-03T15:20:47.842Z,1.92
2023-02-03T15:23:26.877Z,1.98
2023-02-03T15:25:59.035Z,2.45
2023-02-03T15:28:27.783Z,1.20
2023-02-03T15:31:09.505Z,1.27
2023-02-03T15:33:39.042Z,1.77
2023-02-03T15:36:12.236Z,1.40
2023-02-03T15:38:48.594Z,1.38
2023-02-03T15:41:23.477Z,1.45
2023-02-03T15:43:54.697Z,1.30
2023-02-03T15:46:35.396Z,1.00
2023-02-03T15:49:23.298Z,1.30
2023-02-03T15:51:53.899Z,1.13
2023-02-03T15:54:30.670Z,0.90
2023-02-03T15:56:59.819Z,1.33
2023-02-03T15:59:27.082Z,1.25
2023-02-03T16:01:54.605Z,1.08
2023-02-03T16:04:23.000Z,1.15
2023-02-03T16:06:51.603Z,2.25
2023-02-03T16:09:41.822Z,1.67
2023-02-03T16:12:21.844Z,1.40
2023-02-03T16:14:49.483Z,1.20
2023-02-03T16:17:35.554Z,1.30
2023-02-03T16:20:11.140Z,128.40
2023-02-03T16:22:43.994Z,106.00
2023-02-03T16:25:25.677Z,56.05
2023-02-03T16:28:20.416Z,21.15
2023-02-03T16:31:27.291Z,11.25
2023-02-03T16:34:12.694Z,6.93
2023-02-03T16:37:00.579Z,3.88
2023-02-03T16:39:46.649Z,2.45
2023-02-03T16:42:37.552Z,2.22
2023-02-03T16:45:35.002Z,1.98
2023-02-03T16:48:21.404Z,2.10
2023-02-03T16:50:58.234Z,2.60
2023-02-03T16:53:31.534Z,2.72
2023-02-03T16:56:04.468Z,2.38
2023-02-03T16:58:31.951Z,2.80
2023-02-03T17:01:00.706Z,1.73
2023-02-03T17:03:28.694Z,2.65
2023-02-03T17:05:57.481Z,2.63
2023-02-03T17:08:26.258Z,5.90
2023-02-03T17:10:53.576Z,2.22
2023-02-03T17:13:22.192Z,1.52
2023-02-03T17:15:52.563Z,2.47
2023-02-03T17:18:21.160Z,2.15
2023-02-03T17:20:48.178Z,1.48
2023-02-03T17:23:16.598Z,1.17
2023-02-03T17:25:45.588Z,1.45
2023-02-03T17:28:13.823Z,1.67
2023-02-03T17:30:41.318Z,1.50
2023-02-03T17:33:12.286Z,1.60
2023-02-03T17:35:44.960Z,1.38
2023-02-03T17:38:14.313Z,1.65
2023-02-03T17:54:38.240Z,1.45
2023-02-03T17:57:05.719Z,1.23
2023-02-03T17:59:35.037Z,1.05
2023-02-03T18:02:02.007Z,1.15
2023-02-03T18:04:29.319Z,1.50
2023-02-03T18:06:56.074Z,1.65
2023-02-03T18:09:23.285Z,1.55
2023-02-03T18:11:50.642Z,1.55
2023-02-03T18:14:18.224Z,1.48
2023-02-03T18:16:45.617Z,5.15
2023-02-03T18:19:15.186Z,2.25
2023-02-03T18:21:43.357Z,1.65
2023-02-03T18:24:12.526Z,2.35
2023-02-03T18:26:47.990Z,1.65
2023-02-03T18:29:15.511Z,1.40
2023-02-03T18:31:44.085Z,1.50
2023-02-03T18:34:11.554Z,1.52
2023-02-03T18:39:06.961Z,1.92
2023-02-03T18:41:34.616Z,1.63
2023-02-03T18:44:01.913Z,1.17
2023-02-03T18:46:30.847Z,2.40
2023-02-03T18:48:58.464Z,4.28
2023-02-03T18:51:26.551Z,1.67
2023-02-03T18:53:57.825Z,1.50
2023-02-03T18:56:34.893Z,1.73
2023-02-03T18:59:08.256Z,1.50
2023-02-03T19:01:35.850Z,1.85
2023-02-03T19:04:03.425Z,1.70
2023-02-03T19:06:32.059Z,1.65
2023-02-03T19:08:59.551Z,1.85
2023-02-03T19:11:26.855Z,2.75
2023-02-03T19:13:54.292Z,1.92
2023-02-03T19:16:21.609Z,3.28
2023-02-03T19:18:48.862Z,2.10
2023-02-03T19:21:17.577Z,2.60
2023-02-03T19:23:44.814Z,2.30
2023-02-03T19:26:12.220Z,2.70
2023-02-03T19:28:39.856Z,2.15
2023-02-03T19:31:14.028Z,2.40
2023-02-03T19:33:41.793Z,3.83
2023-02-03T19:36:10.419Z,2.65
2023-02-03T19:38:38.180Z,2.42
2023-02-03T19:41:07.175Z,3.95
2023-02-03T19:43:34.218Z,2.13
2023-02-03T19:46:02.453Z,2.92
2023-02-03T19:48:29.613Z,3.55
2023-02-03T19:50:56.870Z,4.15
2023-02-03T19:53:25.363Z,5.55
2023-02-03T19:55:52.717Z,4.30
2023-02-03T19:58:19.517Z,3.42
2023-02-03T20:00:46.616Z,3.05
2023-02-03T20:03:13.445Z,4.70
2023-02-03T20:05:40.773Z,3.00
2023-02-03T20:08:12.898Z,4.75
2023-02-03T20:10:40.480Z,4.20
2023-02-03T20:13:07.738Z,2.75
2023-02-03T20:15:35.005Z,6.15
2023-02-03T20:18:01.975Z,6.70
2023-02-03T20:20:29.621Z,4.53
2023-02-03T20:22:57.050Z,6.72
2023-02-03T20:25:24.300Z,7.65
2023-02-03T20:27:51.691Z,5.47
2023-02-03T20:30:18.995Z,5.38
2023-02-03T20:32:46.018Z,6.35
2023-02-03T20:35:13.536Z,5.40
2023-02-03T20:37:40.884Z,9.73
2023-02-03T20:40:16.486Z,7.95
2023-02-03T20:42:43.827Z,4.05
2023-02-03T20:45:14.732Z,3.60
2023-02-03T20:47:42.106Z,4.25
2023-02-03T20:50:23.619Z,6.90
2023-02-03T20:52:53.360Z,8.95
2023-02-03T20:55:23.915Z,5.57
2023-02-03T20:57:54.338Z,7.60
2023-02-03T21:00:26.212Z,10.40
2023-02-03T21:03:12.107Z,4.10
2023-02-03T21:05:42.027Z,5.00
2023-02-03T21:08:17.066Z,6.80
2023-02-03T21:10:45.336Z,8.27
2023-02-03T21:13:23.980Z,7.18
2023-02-03T21:15:56.300Z,9.50
2023-02-03T21:19:00.279Z,7.60
2023-02-03T21:21:39.584Z,10.05
2023-02-03T21:24:25.294Z,10.68
2023-02-03T21:26:52.555Z,11.25
2023-02-03T21:29:24.277Z,10.38
2023-02-03T21:31:51.533Z,10.05
2023-02-03T21:34:32.228Z,10.00
2023-02-03T21:37:08.009Z,9.27
2023-02-03T21:39:35.642Z,9.80
2023-02-03T21:42:42.311Z,12.05
2023-02-03T21:45:16.558Z,11.10
2023-02-03T21:47:45.084Z,11.60
2023-02-03T21:50:32.330Z,7.75
2023-02-03T21:53:08.725Z,10.27
2023-02-03T21:58:30.845Z,5.75
2023-02-03T22:00:59.905Z,14.85
2023-02-03T22:03:28.427Z,7.75
2023-02-03T22:06:14.185Z,10.82
2023-02-03T22:08:41.418Z,5.53
2023-02-03T22:11:08.979Z,11.80
2023-02-03T22:13:35.968Z,12.90
2023-02-03T22:16:04.011Z,16.80
2023-02-03T22:18:31.393Z,8.65
2023-02-03T22:20:58.651Z,5.80
2023-02-03T22:23:25.556Z,8.57
2023-02-03T22:25:52.325Z,10.00
2023-02-03T22:28:19.666Z,7.65
2023-02-03T22:30:48.062Z,7.65
2023-02-03T22:33:15.354Z,7.90
2023-02-03T22:35:42.185Z,6.65
2023-02-03T22:38:09.576Z,9.25
2023-02-03T22:40:36.917Z,9.88
2023-02-03T22:43:04.196Z,16.95
2023-02-03T22:45:31.486Z,6.95
2023-02-03T22:48:00.247Z,11.98
2023-02-03T22:50:35.409Z,6.88
2023-02-03T22:55:34.366Z,7.65
2023-02-03T22:58:01.193Z,5.43
2023-02-03T23:00:28.793Z,6.63
2023-02-03T23:02:56.176Z,14.13
2023-02-03T23:05:23.346Z,11.43
2023-02-03T23:07:50.642Z,9.30
2023-02-03T23:10:20.388Z,8.98
2023-02-03T23:12:47.635Z,4.70
2023-02-03T23:15:15.116Z,11.63
2023-02-03T23:17:41.932Z,9.80
2023-02-03T23:20:11.309Z,8.18
2023-02-03T23:22:38.536Z,7.25
2023-02-03T23:25:06.042Z,4.55
2023-02-03T23:27:32.860Z,11.00
2023-02-03T23:30:00.137Z,9.85
2023-02-03T23:32:27.390Z,10.20
2023-02-03T23:35:13.650Z,7.05
2023-02-03T23:37:40.846Z,9.43
2023-02-03T23:40:09.648Z,11.68
2023-02-03T23:42:37.062Z,7.95
2023-02-03T23:45:08.107Z,9.27
2023-02-03T23:47:35.465Z,10.07
2023-02-03T23:50:02.835Z,13.35
2023-02-03T23:52:35.620Z,6.25
2023-02-03T23:55:13.076Z,7.22
2023-02-03T23:57:42.601Z,9.18
